Willow Grove, PA

10:25 AM EST on February 27, 2015 (GMT -0500)
Fitzwatertown | Change Station
CLOSE
Current Station
Personal Weather Station
Location: Willow Grove, PA
Elevation: 295 ft
Nearby Weather Stations

Elev 295 ft 40.15 °N, 75.13 °W | Updated 4 minutes ago

Partly Cloudy
Partly Cloudy
23.2 °F
Feels Like 23 °F
N
2.0
Wind Variable Wind from North
Gusts 5.0 mph

Today
High -- | Low -- °F
--% Chance of Precip.
Yesterday
High -- | Low -- °F
Precip. -- in
6:37 AM 5:49 PM
Waxing Gibbous, 69% visible
Pressure 30.43 in
Visibility 10.0 miles
Clouds Mostly Cloudy 3900 ft
Windchill 23 °F
Dew Point 10 °F
Humidity 57%
Rainfall 0.00 in
Snow Depth Not available.
UV 2 out of 12
Pollen .50 out of 12
Air Quality Not available.
Flu Activity Not available.
METAR KPNE 271454Z 34006KT 10SM BKN039 M04/M13 A3043 RMK AO2 SLP305 60000 T10441133 51027 $

More Conditions Fewer Conditions

Pressure 30.43 in
Visibility 10.0 miles
Clouds Mostly Cloudy 3900 ft
Windchill 23 °F
Dew Point 10 °F
Humidity 57%
Rainfall 0.00 in
Snow Depth Not available.
UV 2 out of 12
Pollen .50 out of 12
Air Quality Not available.
Flu Activity Not available.
METAR KPNE 271454Z 34006KT 10SM BKN039 M04/M13 A3043 RMK AO2 SLP305 60000 T10441133 51027 $

More Conditions Fewer Conditions

10-Day Weather Forecast

Almanac

Astronomy

Feb. 27, 2015 Rise Set
Actual Time
Civil Twilight
Nautical Twilight
Astronomical Twilight
Moon
Length of Visible Light
Length of Day
Tomorrow will be .
, % of the Moon is Illuminated

Today's Extremes

State Highs State Lows

Community

WunderPhotos

Upload Photos

1,800,694 photos uploaded!

WunderBlogs® & News

Nearby

Air Quality

  Air Quality AQ Index Pollutant
Not available.

Snow Depth

Station Depth Elevation

Earthquake Activity

City Distance Mag. Time & Date
Minimum magnitude displayed is 2.5.

Coastal Water Temperatures

Place Temperature

Nearby Weather Stations